Capitol Logistics 414


KRFD
Chicago/Rockford International Airport
Rockford, Illinois, US
KSMF
Sacramento International Airport
Sacramento, California, US

Route Details

Aircraft Information
Primary: Boeing 757-200SF
Backup: Boeing 737-800BCF
Route Data
Distance: 1511nm
Sched. Duration: 4h 09m
Avg. Duration: 3h 75m (-34m)
Times Flown: 6
Recm'd Route: DBQ J94 BFF J157 LAR TCH J154 BAM J94 LLC ANAHO SLMMR3
Planned Altitude: 36,000ft
Origin Wx: KRFD 251354Z 02009KT 10SM OVC048 03/M03 A3028 RMK AO2 SLP261 T00281033
Dest. Wx: KSMF 251353Z 29003KT 10SM CLR 07/07 A2991 RMK AO2 SLP128 T00720067
Notes:

Financial History
Total Freight: 360,305lbs
Average Load: 60,051lbs/flt
Fuel Used: 186,403lbs
Avg. Fuel Used: 31,067lbs/flt
Fuel Expense: $127,763
Avg. Fuel Expense: $21,294
Avg. Fuel Cost: $0.68/lbs
Total Gross Income: $479,375
Pilot Pay: $1,004
Total Expenses: $52,084
Total Revenue: $294,086
Average Revenue: $79,895.77